createdAt,value
2022-10-21T00:02:14.147Z,31.55
2022-10-21T00:04:43.180Z,33.42
2022-10-21T00:07:14.845Z,32.95
2022-10-21T00:09:43.864Z,31.88
2022-10-21T00:12:12.936Z,28.67
2022-10-21T00:14:43.416Z,32.78
2022-10-21T00:17:12.501Z,35.70
2022-10-21T00:19:42.829Z,30.50
2022-10-21T00:22:11.974Z,32.65
2022-10-21T00:24:41.070Z,34.40
2022-10-21T00:27:10.320Z,31.88
2022-10-21T00:29:39.471Z,33.47
2022-10-21T00:32:10.064Z,32.92
2022-10-21T00:34:39.292Z,35.75
2022-10-21T00:37:08.344Z,32.65
2022-10-21T00:39:37.490Z,31.00
2022-10-21T00:42:07.871Z,25.73
2022-10-21T00:44:38.525Z,24.77
2022-10-21T00:47:12.603Z,29.02
2022-10-21T00:49:45.121Z,39.45
2022-10-21T00:52:17.301Z,25.15
2022-10-21T00:54:48.157Z,26.65
2022-10-21T00:57:18.743Z,29.20
2022-10-21T00:59:52.788Z,27.98
2022-10-21T01:02:23.469Z,27.73
2022-10-21T01:04:54.910Z,30.02
2022-10-21T01:07:24.402Z,31.48
2022-10-21T01:09:53.373Z,27.95
2022-10-21T01:12:34.775Z,25.85
2022-10-21T01:15:10.541Z,25.00
2022-10-21T01:17:50.123Z,23.27
2022-10-21T01:20:38.073Z,32.83
2022-10-21T01:23:50.950Z,30.00
2022-10-21T01:26:38.539Z,26.05
2022-10-21T01:29:29.193Z,22.00
2022-10-21T01:32:08.637Z,25.87
2022-10-21T01:34:43.010Z,28.65
2022-10-21T01:37:19.453Z,21.95
2022-10-21T01:39:54.222Z,22.67
2022-10-21T01:42:30.672Z,28.30
2022-10-21T01:45:05.904Z,25.08
2022-10-21T01:47:39.887Z,29.48
2022-10-21T01:50:12.076Z,24.23
2022-10-21T01:52:43.128Z,26.08
2022-10-21T01:55:16.757Z,22.73
2022-10-21T01:57:54.039Z,24.70
2022-10-21T02:00:23.233Z,29.77
2022-10-21T02:02:53.993Z,24.00
2022-10-21T02:05:26.779Z,22.25
2022-10-21T02:07:56.557Z,23.13
2022-10-21T02:10:29.127Z,21.38
2022-10-21T02:13:02.013Z,22.58
2022-10-21T02:15:34.645Z,21.08
2022-10-21T02:18:08.833Z,29.95
2022-10-21T02:20:41.183Z,27.95
2022-10-21T02:23:14.123Z,29.15
2022-10-21T02:25:47.373Z,27.02
2022-10-21T02:28:16.792Z,22.05
2022-10-21T02:30:52.920Z,29.75
2022-10-21T02:33:30.277Z,17.45
2022-10-21T02:36:08.655Z,25.85
2022-10-21T02:38:42.336Z,24.70
2022-10-21T02:41:13.030Z,22.85
2022-10-21T02:43:48.206Z,25.25
2022-10-21T02:46:17.592Z,25.40
2022-10-21T02:48:49.496Z,24.60
2022-10-21T02:51:18.847Z,21.25
2022-10-21T02:53:47.888Z,24.80
2022-10-21T02:56:17.008Z,25.63
2022-10-21T02:58:46.040Z,25.08
2022-10-21T03:01:15.098Z,20.35
2022-10-21T03:03:44.129Z,28.13
2022-10-21T03:06:14.510Z,23.40
2022-10-21T03:08:43.669Z,23.53
2022-10-21T03:11:12.694Z,27.85
2022-10-21T03:13:41.693Z,22.45
2022-10-21T03:16:10.831Z,27.10
2022-10-21T03:18:39.982Z,25.90
2022-10-21T03:21:09.047Z,20.33
2022-10-21T03:23:39.552Z,25.52
2022-10-21T03:26:08.656Z,24.80
2022-10-21T03:28:37.678Z,20.63
2022-10-21T03:31:06.959Z,23.30
2022-10-21T03:33:35.972Z,15.68
2022-10-21T03:36:05.457Z,25.63
2022-10-21T03:38:34.440Z,18.15
2022-10-21T03:41:04.869Z,20.75
2022-10-21T03:43:33.862Z,19.40
2022-10-21T03:46:02.920Z,17.23
2022-10-21T03:48:31.871Z,18.48
2022-10-21T03:51:00.970Z,23.83
2022-10-21T03:53:42.721Z,23.88
2022-10-21T03:56:14.685Z,16.80
2022-10-21T03:58:43.925Z,22.77
2022-10-21T04:01:14.197Z,22.38
2022-10-21T04:03:43.335Z,24.45
2022-10-21T04:06:12.381Z,22.10
2022-10-21T04:08:41.419Z,20.35
2022-10-21T04:11:10.540Z,20.73
2022-10-21T04:13:40.954Z,20.30
2022-10-21T04:16:14.745Z,22.17
2022-10-21T04:18:43.817Z,21.00
2022-10-21T04:21:13.031Z,22.48
2022-10-21T04:23:42.116Z,20.05
2022-10-21T04:26:11.278Z,27.42
2022-10-21T04:28:41.654Z,21.10
2022-10-21T04:31:11.128Z,22.90
2022-10-21T04:33:40.337Z,27.15
2022-10-21T04:36:09.590Z,24.70
2022-10-21T04:38:38.566Z,30.75
2022-10-21T04:41:07.543Z,24.75
2022-10-21T04:43:38.431Z,27.95
2022-10-21T04:46:12.127Z,26.60
2022-10-21T04:48:41.304Z,23.02
2022-10-21T04:51:10.386Z,24.73
2022-10-21T04:53:39.398Z,27.60
2022-10-21T04:56:08.935Z,19.23
2022-10-21T04:58:37.993Z,27.27
2022-10-21T05:01:07.195Z,24.33
2022-10-21T05:03:37.640Z,28.90
2022-10-21T05:06:06.984Z,27.80
2022-10-21T05:08:35.983Z,27.10
2022-10-21T05:11:05.303Z,38.85
2022-10-21T05:13:34.717Z,30.85
2022-10-21T05:16:05.133Z,44.05
2022-10-21T05:18:34.155Z,44.25
2022-10-21T05:21:04.803Z,40.03
2022-10-21T05:23:34.078Z,43.78
2022-10-21T05:26:03.073Z,40.70
2022-10-21T05:28:32.076Z,40.28
2022-10-21T05:31:01.182Z,27.50
2022-10-21T05:33:30.128Z,38.45
2022-10-21T05:36:01.061Z,33.83
2022-10-21T05:38:31.816Z,34.42
2022-10-21T05:41:01.126Z,32.63
2022-10-21T05:43:30.244Z,30.15
2022-10-21T05:45:59.552Z,36.45
2022-10-21T05:48:28.551Z,34.05
2022-10-21T05:50:58.109Z,26.17
2022-10-21T05:53:27.442Z,23.40
2022-10-21T05:55:59.148Z,34.20
2022-10-21T05:58:29.125Z,34.00
2022-10-21T06:00:58.790Z,38.03
2022-10-21T06:03:30.541Z,30.77
2022-10-21T06:06:00.873Z,29.02
2022-10-21T06:08:32.023Z,21.95
2022-10-21T06:11:03.647Z,30.60
2022-10-21T06:13:33.157Z,28.48
2022-10-21T06:16:02.361Z,33.17
2022-10-21T06:18:31.746Z,29.70
2022-10-21T06:21:00.863Z,29.95
2022-10-21T06:23:30.253Z,28.42
2022-10-21T06:26:00.521Z,31.67
2022-10-21T06:28:33.340Z,40.50
2022-10-21T06:31:02.680Z,33.45
2022-10-21T06:33:32.039Z,33.30
2022-10-21T06:36:01.110Z,34.70
2022-10-21T06:38:32.297Z,29.33
2022-10-21T06:41:09.163Z,32.78
2022-10-21T06:43:43.078Z,30.38
2022-10-21T06:46:17.792Z,33.45
2022-10-21T06:48:46.993Z,30.90
2022-10-21T06:51:18.083Z,29.33
2022-10-21T06:53:47.825Z,29.38
2022-10-21T06:56:19.858Z,36.47
2022-10-21T06:58:51.699Z,30.73
2022-10-21T07:01:35.001Z,40.70
2022-10-21T07:04:11.210Z,35.58
2022-10-21T07:06:40.254Z,31.77
2022-10-21T07:09:10.802Z,24.85
2022-10-21T07:11:39.832Z,35.38
2022-10-21T07:14:12.108Z,25.38
2022-10-21T07:16:41.129Z,35.63
2022-10-21T07:19:11.354Z,31.50
2022-10-21T07:21:40.377Z,29.75
2022-10-21T07:24:10.553Z,31.75
2022-10-21T07:26:40.106Z,25.95
2022-10-21T07:29:10.607Z,29.55
2022-10-21T07:31:40.069Z,28.50
2022-10-21T07:34:10.366Z,42.10
2022-10-21T07:36:42.132Z,35.93
2022-10-21T07:39:14.585Z,33.10
2022-10-21T07:41:46.004Z,40.40
2022-10-21T07:46:47.484Z,30.65
2022-10-21T07:49:18.371Z,31.10
2022-10-21T07:51:50.304Z,28.98
2022-10-21T07:54:20.312Z,34.28
2022-10-21T07:56:51.541Z,27.27
2022-10-21T07:59:23.538Z,30.17
2022-10-21T08:01:54.110Z,38.72
2022-10-21T08:04:29.792Z,39.10
2022-10-21T08:06:59.554Z,43.33
2022-10-21T08:09:28.600Z,39.97
2022-10-21T08:11:58.138Z,44.67
2022-10-21T08:14:28.678Z,48.13
2022-10-21T08:16:57.689Z,41.27
2022-10-21T08:19:29.981Z,46.17
2022-10-21T08:22:00.876Z,50.05
2022-10-21T08:24:30.309Z,47.70
2022-10-21T08:26:59.327Z,45.03
2022-10-21T08:29:29.820Z,43.65
2022-10-21T08:31:58.900Z,54.08
2022-10-21T08:34:28.175Z,47.58
2022-10-21T08:36:57.505Z,45.40
2022-10-21T08:39:26.642Z,46.78
2022-10-21T08:42:07.663Z,56.30
2022-10-21T08:44:46.083Z,53.85
2022-10-21T08:47:32.603Z,51.45
2022-10-21T08:50:04.135Z,48.05
2022-10-21T08:52:41.158Z,38.05
2022-10-21T08:55:18.625Z,44.85
2022-10-21T08:57:48.721Z,60.85
2022-10-21T09:00:21.912Z,51.38
2022-10-21T09:03:17.370Z,45.00
2022-10-21T09:06:15.104Z,53.70
2022-10-21T09:09:02.946Z,46.30
2022-10-21T09:11:47.569Z,61.47
2022-10-21T09:14:39.754Z,49.25
2022-10-21T09:17:22.449Z,50.95
2022-10-21T09:19:59.803Z,52.72
2022-10-21T09:22:42.965Z,59.20
2022-10-21T09:25:21.546Z,54.90
2022-10-21T09:27:56.585Z,48.88
2022-10-21T09:30:27.502Z,66.18
2022-10-21T09:33:04.065Z,66.30
2022-10-21T09:35:39.049Z,71.35
2022-10-21T09:38:16.030Z,60.67
2022-10-21T09:40:48.495Z,49.00
2022-10-21T09:43:19.791Z,46.55
2022-10-21T09:48:31.624Z,39.15
2022-10-21T09:51:10.949Z,65.72
2022-10-21T09:53:51.671Z,54.40
2022-10-21T09:56:26.186Z,39.13
2022-10-21T09:59:07.532Z,28.52
2022-10-21T10:01:39.278Z,40.05
2022-10-21T10:06:44.837Z,37.25
2022-10-21T10:09:18.883Z,43.63
2022-10-21T10:11:54.904Z,49.00
2022-10-21T10:14:28.194Z,54.75
2022-10-21T10:16:58.056Z,67.22
2022-10-21T10:19:30.050Z,76.18
2022-10-21T10:22:11.214Z,76.38
2022-10-21T10:24:41.633Z,85.35
2022-10-21T10:27:15.735Z,90.88
2022-10-21T10:29:53.726Z,90.10
2022-10-21T10:32:26.017Z,59.08
2022-10-21T10:34:59.821Z,84.18
2022-10-21T10:37:32.685Z,75.35
2022-10-21T10:40:04.933Z,60.33
2022-10-21T10:42:37.701Z,78.75
2022-10-21T10:45:15.887Z,83.60
2022-10-21T10:47:51.570Z,79.38
2022-10-21T10:50:46.869Z,88.32
2022-10-21T10:53:29.708Z,90.82
2022-10-21T10:56:19.789Z,88.05
2022-10-21T10:58:57.881Z,73.15
2022-10-21T11:01:32.469Z,85.00
2022-10-21T11:04:11.456Z,77.10
2022-10-21T11:06:46.946Z,55.65
2022-10-21T11:09:17.236Z,52.80
2022-10-21T11:11:49.351Z,55.60
2022-10-21T11:14:22.531Z,57.58
2022-10-21T11:17:01.966Z,69.72
2022-10-21T11:19:39.978Z,64.15
2022-10-21T11:22:16.440Z,55.80
2022-10-21T11:24:56.383Z,60.35
2022-10-21T11:27:47.533Z,44.67
2022-10-21T11:30:20.030Z,35.53
2022-10-21T11:32:58.188Z,39.45
2022-10-21T11:35:38.524Z,49.22
2022-10-21T11:38:52.762Z,38.85
2022-10-21T11:41:29.664Z,42.45
2022-10-21T11:44:12.881Z,41.00
2022-10-21T11:46:50.147Z,32.88
2022-10-21T11:49:37.180Z,41.80
2022-10-21T11:52:16.860Z,37.83
2022-10-21T11:55:10.685Z,33.88
2022-10-21T11:57:49.045Z,35.00
2022-10-21T12:00:21.792Z,25.63
2022-10-21T12:03:10.685Z,33.17
2022-10-21T12:05:53.076Z,33.53
2022-10-21T12:08:27.473Z,36.70
2022-10-21T12:11:02.142Z,33.70
2022-10-21T12:13:34.589Z,35.20
2022-10-21T12:16:08.941Z,37.25
2022-10-21T12:18:44.199Z,39.67
2022-10-21T12:21:17.747Z,29.10
2022-10-21T12:23:54.017Z,35.10
2022-10-21T12:26:28.023Z,27.42
2022-10-21T12:29:03.881Z,32.05
2022-10-21T12:31:46.042Z,28.20
2022-10-21T12:34:15.931Z,31.52
2022-10-21T12:36:49.513Z,32.67
2022-10-21T12:39:37.094Z,24.55
2022-10-21T12:42:13.184Z,28.75
2022-10-21T12:44:48.066Z,26.58
2022-10-21T12:47:30.135Z,29.77
2022-10-21T12:50:29.397Z,28.67
2022-10-21T12:53:09.378Z,34.10
2022-10-21T12:55:41.427Z,37.90
2022-10-21T12:58:31.805Z,39.08
2022-10-21T13:01:02.624Z,54.45
2022-10-21T13:04:00.927Z,53.15
2022-10-21T13:06:53.791Z,59.58
2022-10-21T13:09:35.875Z,57.30
2022-10-21T13:12:16.176Z,50.22
2022-10-21T13:14:48.759Z,67.93
2022-10-21T13:17:31.493Z,62.42
2022-10-21T13:20:38.545Z,58.22
2022-10-21T13:23:31.820Z,59.30
2022-10-21T13:26:25.979Z,72.75
2022-10-21T13:29:00.552Z,61.72
2022-10-21T13:31:31.425Z,65.63
2022-10-21T13:34:00.946Z,62.22
2022-10-21T13:36:39.671Z,71.00
2022-10-21T13:39:24.525Z,76.85
2022-10-21T13:42:01.288Z,60.70
2022-10-21T13:44:35.512Z,75.20
2022-10-21T13:47:28.373Z,57.40
2022-10-21T13:49:59.416Z,63.72
2022-10-21T13:52:29.809Z,66.25
2022-10-21T13:55:00.059Z,67.55
2022-10-21T13:57:32.702Z,70.05
2022-10-21T14:00:03.209Z,76.57
2022-10-21T14:02:35.374Z,59.95
2022-10-21T14:05:04.650Z,68.90
2022-10-21T14:07:34.346Z,56.55
2022-10-21T14:10:07.466Z,57.92
2022-10-21T14:12:41.764Z,72.25
2022-10-21T14:15:18.144Z,84.88
2022-10-21T14:17:55.207Z,68.15
2022-10-21T14:20:33.972Z,61.92
2022-10-21T14:23:05.442Z,68.05
2022-10-21T14:25:35.066Z,54.30
2022-10-21T14:28:06.303Z,72.20
2022-10-21T14:30:37.224Z,67.03
2022-10-21T14:33:08.555Z,64.18
2022-10-21T14:38:26.819Z,62.70
2022-10-21T14:41:02.060Z,57.25
2022-10-21T14:43:35.061Z,66.30
2022-10-21T14:46:07.143Z,78.57
2022-10-21T14:48:41.545Z,68.95
2022-10-21T14:51:16.574Z,75.93
2022-10-21T14:53:54.926Z,82.13
2022-10-21T14:56:30.949Z,69.05
2022-10-21T14:59:01.957Z,65.50
2022-10-21T15:01:32.148Z,71.00
2022-10-21T15:04:02.856Z,68.80
2022-10-21T15:06:34.594Z,77.38
2022-10-21T15:09:17.799Z,65.63
2022-10-21T15:11:48.556Z,49.60
2022-10-21T15:14:24.189Z,67.60
2022-10-21T15:16:55.764Z,58.45
2022-10-21T15:19:28.280Z,55.72
2022-10-21T15:22:00.682Z,80.15
2022-10-21T15:24:38.361Z,71.03
2022-10-21T15:27:07.717Z,86.15
2022-10-21T15:29:39.269Z,75.85
2022-10-21T15:32:08.375Z,65.10
2022-10-21T15:34:38.893Z,105.05
2022-10-21T15:37:08.257Z,77.15
2022-10-21T15:39:37.324Z,93.47
2022-10-21T15:42:06.931Z,105.82
2022-10-21T15:44:36.057Z,100.43
2022-10-21T15:47:11.133Z,79.95
2022-10-21T15:49:42.393Z,95.13
2022-10-21T15:52:11.682Z,67.18
2022-10-21T15:54:40.663Z,101.97
2022-10-21T15:57:18.041Z,76.80
2022-10-21T15:59:47.636Z,70.35
2022-10-21T16:02:18.549Z,70.30
2022-10-21T16:04:53.008Z,70.38
2022-10-21T16:07:25.048Z,70.07
2022-10-21T16:09:54.174Z,82.35
2022-10-21T16:12:24.560Z,70.63
2022-10-21T16:14:54.390Z,77.15
2022-10-21T16:17:24.411Z,70.18
2022-10-21T16:19:54.875Z,67.00
2022-10-21T16:22:24.271Z,61.73
2022-10-21T16:24:53.339Z,75.40
2022-10-21T16:27:31.029Z,58.47
2022-10-21T16:30:17.722Z,69.47
2022-10-21T16:32:47.300Z,62.58
2022-10-21T16:35:18.704Z,69.72
2022-10-21T16:40:20.922Z,74.13
2022-10-21T16:42:50.922Z,65.53
2022-10-21T16:45:21.802Z,67.75
2022-10-21T16:47:53.357Z,64.68
2022-10-21T16:50:26.870Z,72.13
2022-10-21T16:52:55.863Z,57.85
2022-10-21T16:55:24.866Z,85.50
2022-10-21T16:57:53.875Z,65.00
2022-10-21T17:00:23.600Z,69.78
2022-10-21T17:02:52.859Z,73.55
2022-10-21T17:05:23.527Z,74.82
2022-10-21T17:07:52.703Z,65.68
2022-10-21T17:10:21.708Z,63.28
2022-10-21T17:12:57.027Z,81.97
2022-10-21T17:15:27.971Z,66.75
2022-10-21T17:17:57.028Z,70.78
2022-10-21T17:20:30.466Z,69.82
2022-10-21T17:22:59.855Z,76.22
2022-10-21T17:25:30.094Z,71.57
2022-10-21T17:27:59.304Z,78.13
2022-10-21T17:30:28.635Z,76.55
2022-10-21T17:32:57.940Z,90.75
2022-10-21T17:35:28.440Z,89.65
2022-10-21T17:37:57.483Z,83.10
2022-10-21T17:40:27.880Z,78.03
2022-10-21T17:42:58.420Z,76.50
2022-10-21T17:45:27.478Z,78.83
2022-10-21T17:47:56.488Z,74.07
2022-10-21T17:50:26.004Z,73.93
2022-10-21T17:52:56.742Z,81.93
2022-10-21T17:55:27.072Z,70.22
2022-10-21T17:57:56.112Z,68.80
2022-10-21T18:00:25.242Z,61.35
2022-10-21T18:02:54.547Z,69.47
2022-10-21T18:05:23.646Z,76.93
2022-10-21T18:07:52.754Z,81.68
2022-10-21T18:10:23.389Z,73.82
2022-10-21T18:12:52.485Z,80.55
2022-10-21T18:15:22.516Z,62.88
2022-10-21T18:17:51.588Z,74.93
2022-10-21T18:20:20.993Z,71.43
2022-10-21T18:22:50.128Z,72.40
2022-10-21T18:25:19.438Z,77.78
2022-10-21T18:27:49.873Z,76.32
2022-10-21T18:30:19.066Z,70.33
2022-10-21T18:32:48.303Z,69.25
2022-10-21T18:35:17.481Z,80.28
2022-10-21T18:37:47.067Z,67.40
2022-10-21T18:40:16.062Z,80.43
2022-10-21T18:42:45.126Z,65.88
2022-10-21T18:45:15.799Z,57.28
2022-10-21T18:47:47.416Z,77.82
2022-10-21T18:50:16.834Z,72.72
2022-10-21T18:52:46.212Z,70.13
2022-10-21T18:55:15.421Z,65.65
2022-10-21T18:57:44.897Z,55.58
2022-10-21T19:00:16.069Z,63.92
2022-10-21T19:02:45.106Z,68.88
2022-10-21T19:05:14.112Z,71.32
2022-10-21T19:07:43.305Z,60.63
2022-10-21T19:10:13.998Z,60.63
2022-10-21T19:12:43.189Z,67.63
2022-10-21T19:15:12.646Z,57.40
2022-10-21T19:17:43.962Z,56.63
2022-10-21T19:22:42.814Z,59.67
2022-10-21T19:25:11.895Z,61.00
2022-10-21T19:27:41.492Z,69.13
2022-10-21T19:30:11.843Z,63.55
2022-10-21T19:32:42.607Z,78.50
2022-10-21T19:35:11.945Z,67.63
2022-10-21T19:37:40.975Z,69.97
2022-10-21T19:40:10.690Z,66.38
2022-10-21T19:42:41.244Z,71.93
2022-10-21T19:45:16.957Z,66.10
2022-10-21T19:47:47.767Z,68.50
2022-10-21T19:50:16.975Z,69.80
2022-10-21T19:52:49.045Z,73.10
2022-10-21T19:55:19.202Z,62.08
2022-10-21T19:57:48.480Z,60.40
2022-10-21T20:00:17.700Z,62.53
2022-10-21T20:02:48.118Z,60.95
2022-10-21T20:05:17.270Z,66.00
2022-10-21T20:07:46.328Z,58.10
2022-10-21T20:10:15.762Z,54.58
2022-10-21T20:12:44.728Z,53.28
2022-10-21T20:15:13.872Z,55.92
2022-10-21T20:17:42.975Z,61.17
2022-10-21T20:20:13.660Z,58.50
2022-10-21T20:22:43.173Z,61.22
2022-10-21T20:25:12.606Z,66.40
2022-10-21T20:27:42.254Z,56.63
2022-10-21T20:30:12.453Z,76.30
2022-10-21T20:32:41.827Z,66.38
2022-10-21T20:35:12.391Z,74.70
2022-10-21T20:37:41.968Z,64.97
2022-10-21T20:40:12.170Z,59.15
2022-10-21T20:42:41.357Z,72.95
2022-10-21T20:45:11.450Z,62.00
2022-10-21T20:47:40.661Z,68.45
2022-10-21T20:50:10.743Z,75.70
2022-10-21T20:52:41.634Z,71.30
2022-10-21T20:55:11.160Z,69.47
2022-10-21T20:57:40.595Z,64.97
2022-10-21T21:00:13.347Z,68.43
2022-10-21T21:02:43.980Z,65.30
2022-10-21T21:05:15.929Z,64.25
2022-10-21T21:07:46.388Z,67.88
2022-10-21T21:10:15.670Z,64.93
2022-10-21T21:12:44.818Z,74.15
2022-10-21T21:15:13.900Z,54.72
2022-10-21T21:17:43.005Z,68.75
2022-10-21T21:20:13.534Z,66.35
2022-10-21T21:22:43.019Z,60.30
2022-10-21T21:25:13.643Z,57.55
2022-10-21T21:27:42.823Z,59.07
2022-10-21T21:30:12.971Z,61.63
2022-10-21T21:32:42.216Z,62.13
2022-10-21T21:35:12.711Z,58.40
2022-10-21T21:37:41.723Z,66.03
2022-10-21T21:40:13.245Z,67.05
2022-10-21T21:42:42.405Z,63.83
2022-10-21T21:45:12.332Z,58.60
2022-10-21T21:47:41.324Z,60.75
2022-10-21T21:50:10.932Z,70.28
2022-10-21T21:52:39.959Z,60.00
2022-10-21T21:55:09.674Z,64.63
2022-10-21T21:57:40.078Z,59.15
2022-10-21T22:00:10.433Z,70.40
2022-10-21T22:02:39.501Z,50.78
2022-10-21T22:05:09.180Z,60.78
2022-10-21T22:07:38.281Z,49.53
2022-10-21T22:10:08.267Z,51.67
2022-10-21T22:12:37.281Z,47.55
2022-10-21T22:15:13.597Z,44.25
2022-10-21T22:17:45.545Z,43.22
2022-10-21T22:20:14.557Z,45.80
2022-10-21T22:22:43.662Z,47.80
2022-10-21T22:25:15.200Z,48.95
2022-10-21T22:27:44.321Z,46.60
2022-10-21T22:30:16.374Z,40.10
2022-10-21T22:32:45.461Z,46.28
2022-10-21T22:35:16.214Z,50.13
2022-10-21T22:37:45.290Z,49.63
2022-10-21T22:40:14.321Z,47.05
2022-10-21T22:45:15.404Z,36.03
2022-10-21T22:47:44.467Z,41.00
2022-10-21T22:50:13.670Z,39.63
2022-10-21T22:52:43.422Z,32.20
2022-10-21T22:55:12.788Z,40.67
2022-10-21T22:57:42.135Z,41.25
2022-10-21T23:00:12.276Z,35.03
2022-10-21T23:02:43.092Z,23.70
2022-10-21T23:05:12.408Z,21.85
2022-10-21T23:07:41.505Z,31.88
2022-10-21T23:10:11.596Z,24.08
2022-10-21T23:12:40.898Z,25.58
2022-10-21T23:15:10.961Z,21.60
2022-10-21T23:17:39.918Z,20.42
2022-10-21T23:20:13.758Z,23.27
2022-10-21T23:22:43.100Z,17.50
2022-10-21T23:25:12.326Z,19.52
2022-10-21T23:27:41.399Z,16.02
2022-10-21T23:30:11.578Z,20.67
2022-10-21T23:32:40.900Z,24.08
2022-10-21T23:35:11.742Z,21.77
2022-10-21T23:37:41.187Z,21.23
2022-10-21T23:40:11.840Z,16.83
2022-10-21T23:42:42.873Z,19.13
2022-10-21T23:45:13.038Z,19.70
2022-10-21T23:47:42.432Z,16.98
2022-10-21T23:50:13.740Z,10.18
2022-10-21T23:52:42.821Z,9.05
2022-10-21T23:55:12.324Z,8.48
2022-10-21T23:57:41.526Z,12.77
